Share

Argyle, GA

Homerville (KHOE) Elev 187 ft | 31.06 °N, 82.77 °W | Change Station
Active Advisory: Areal Flood Watch

Current weather conditions updated 17 minutes ago

Heavy Rain
Heavy Rain
61 °F
Feels Like 61 °F
N
7
Wind Variable Wind from NNE
Gusts 16 mph
Sunrise 6:59 AM
Sunset 8:01 PM
Moon Waning Gibbous

Today is forecast to be Cooler than yesterday. Rain, heavy at times.

Pressure 30.07 in
Visibility 2.5 miles
Clouds Mostly Cloudy 800 ft
Overcast 1200 ft
Dew Point 61 °F
Humidity 100%
Rainfall 0.00 in
Snow Depth Not available.
UV 4 out of 16
Pollen 1.10 out of 12
Air Quality Not available.
Flu Activity Sporadic
METAR KHOE 181655Z AUTO 03006G14KT 2 1/2SM +RA BKN008 OVC012 16/16 A3007 RMK AO2

More Conditions Fewer Conditions

Pressure 30.07 in
Visibility 2.5 miles
Clouds Mostly Cloudy 800 ft
Overcast 1200 ft
Dew Point 61 °F
Humidity 100%
Rainfall 0.00 in
Snow Depth Not available.
UV 4 out of 16
Pollen 1.10 out of 12
Air Quality Not available.
Flu Activity Sporadic
METAR KHOE 181655Z AUTO 03006G14KT 2 1/2SM +RA BKN008 OVC012 16/16 A3007 RMK AO2

More Conditions Fewer Conditions

10-Day Weather Forecast

Almanac

Astronomy

Apr. 18, 2014 Rise Set
Actual Time 6:59 AM EDT 8:01 PM EDT
Civil Twilight 6:34 AM EDT 8:26 PM EDT
Nautical Twilight 6:05 AM EDT 8:55 PM EDT
Astronomical Twilight 5:34 AM EDT 9:26 PM EDT
Moon 11:36 PM EDT 9:29 AM EDT
Length of Visible Light 13h 51m
Length of Day
13h 01m
Tomorrow will be 1m 44s longer.
Waning Gibbous, 87% of the Moon is Illuminated
Today
Waning Gibbous
Apr 22
Last Quarter
Apr 29
New
May 6
First Quarter
May 14
Full

Today's Extremes

State Highs State Lows

Community

  • What's for Lunch?
    What's for Lunch?
  • SUNRISE THROUGH THE TREES.
    SUNRISE THROUGH THE TREES.
  • Dog Wood Blossoms
    Dog Wood Blossoms
  • Morning Light
    Morning Light
  • New Day
    New Day

WunderPhotos

Upload Photos

1,702,423 photos uploaded!

Nearby

Snow Depth

Station Depth Elevation
No new snow has been reported.

Coastal Water Temperatures

Place Temperature
No Stations Reporting

Earthquake Activity

City Distance Mag. Time & Date
No recent earthquake activity has been reported nearby.
Minimum magnitude displayed is 2.5.

Nearby Weather Stations

Station Location Temp. Dew Point Humidity Wind Precip. Elev Updated Type
Courthouse, Pearson, GA 58.5 °F 58 °F 98% South  at  0.4 mph 0.57 in / hr 213 ft 1:12 PM EDT Rapid Fire

Show More Stations Show Fewer Stations

What do you think?

We're not finished. Please let us know what you like, what you don't like, and what you are still missing.